createdAt,value
2018-11-12T00:00:43.519Z,99.99
2018-11-12T00:01:43.610Z,99.99
2018-11-12T00:02:43.791Z,99.99
2018-11-12T00:03:43.982Z,99.99
2018-11-12T00:04:44.161Z,99.99
2018-11-12T00:05:44.373Z,99.99
2018-11-12T00:06:44.557Z,99.99
2018-11-12T00:07:44.753Z,99.99
2018-11-12T00:08:44.957Z,99.99
2018-11-12T00:09:45.136Z,99.99
2018-11-12T00:10:45.354Z,99.99
2018-11-12T00:11:45.530Z,99.99
2018-11-12T00:12:45.721Z,99.99
2018-11-12T00:13:45.952Z,99.99
2018-11-12T00:14:46.037Z,99.99
2018-11-12T00:15:46.240Z,99.99
2018-11-12T00:16:46.428Z,99.99
2018-11-12T00:17:46.634Z,99.99
2018-11-12T00:18:46.849Z,99.99
2018-11-12T00:19:47.051Z,99.99
2018-11-12T00:20:47.229Z,99.99
2018-11-12T00:21:47.443Z,99.99
2018-11-12T00:22:47.628Z,99.99
2018-11-12T00:23:47.832Z,99.99
2018-11-12T00:24:48.041Z,99.99
2018-11-12T00:25:48.228Z,99.99
2018-11-12T00:26:48.411Z,99.99
2018-11-12T00:27:48.597Z,99.99
2018-11-12T00:28:48.783Z,99.99
2018-11-12T00:29:48.975Z,99.99
2018-11-12T00:30:49.171Z,99.99
2018-11-12T00:31:49.367Z,99.99
2018-11-12T00:32:49.582Z,99.99
2018-11-12T00:33:49.810Z,99.99
2018-11-12T00:34:49.945Z,99.99
2018-11-12T00:35:50.150Z,99.99
2018-11-12T00:36:50.329Z,99.99
2018-11-12T00:37:50.538Z,99.99
2018-11-12T00:38:50.726Z,99.99
2018-11-12T00:39:50.924Z,99.99
2018-11-12T00:40:51.112Z,99.99
2018-11-12T00:41:51.335Z,99.99
2018-11-12T00:42:51.447Z,99.99
2018-11-12T00:43:51.634Z,99.99
2018-11-12T00:44:51.867Z,99.99
2018-11-12T00:45:51.939Z,99.99
2018-11-12T00:46:52.173Z,99.99
2018-11-12T00:47:52.357Z,99.99
2018-11-12T00:48:52.530Z,99.99
2018-11-12T00:49:52.728Z,99.99
2018-11-12T00:50:52.931Z,99.99
2018-11-12T00:51:53.130Z,99.99
2018-11-12T00:52:53.303Z,99.99
2018-11-12T00:53:53.498Z,99.99
2018-11-12T00:54:53.699Z,99.99
2018-11-12T00:55:53.875Z,99.99
2018-11-12T00:56:54.098Z,99.99
2018-11-12T00:57:54.290Z,99.99
2018-11-12T00:58:54.469Z,99.99
2018-11-12T00:59:54.656Z,99.99
2018-11-12T01:00:55.107Z,99.99
2018-11-12T01:01:55.045Z,99.99
2018-11-12T01:02:55.256Z,99.99
2018-11-12T01:03:55.495Z,99.99
2018-11-12T01:04:55.630Z,99.99
2018-11-12T01:05:55.851Z,99.99
2018-11-12T01:06:56.049Z,99.99
2018-11-12T01:07:56.232Z,99.99
2018-11-12T01:08:56.470Z,99.99
2018-11-12T01:09:56.562Z,99.99
2018-11-12T01:10:56.765Z,99.99
2018-11-12T01:11:56.952Z,99.99
2018-11-12T01:12:57.160Z,99.99
2018-11-12T01:13:57.397Z,99.99
2018-11-12T01:14:57.474Z,99.99
2018-11-12T01:15:57.685Z,99.99
2018-11-12T01:16:57.873Z,99.99
2018-11-12T01:17:58.054Z,99.99
2018-11-12T01:18:58.306Z,99.99
2018-11-12T01:19:58.359Z,99.99
2018-11-12T01:20:58.535Z,99.99
2018-11-12T01:21:58.638Z,99.99
2018-11-12T01:22:58.849Z,99.99
2018-11-12T01:23:59.019Z,99.99
2018-11-12T01:24:59.218Z,99.99
2018-11-12T01:25:59.438Z,99.99
2018-11-12T01:26:59.614Z,99.99
2018-11-12T01:27:59.809Z,99.99
2018-11-12T01:28:59.991Z,99.99
2018-11-12T01:30:00.186Z,99.99
2018-11-12T01:31:00.426Z,99.99
2018-11-12T01:32:00.503Z,99.99
2018-11-12T01:33:00.751Z,99.99
2018-11-12T01:34:00.832Z,99.99
2018-11-12T01:35:01.017Z,99.99
2018-11-12T01:36:01.249Z,99.99
2018-11-12T01:37:01.452Z,99.99
2018-11-12T01:38:01.656Z,99.99
2018-11-12T01:39:01.890Z,99.99
2018-11-12T01:40:02.035Z,99.99
2018-11-12T01:41:02.109Z,99.99
2018-11-12T01:42:02.368Z,99.99
2018-11-12T01:43:02.392Z,99.99
2018-11-12T01:44:02.619Z,99.99
2018-11-12T01:45:02.828Z,99.99
2018-11-12T01:46:03.057Z,99.99
2018-11-12T01:47:03.232Z,99.99
2018-11-12T01:48:03.439Z,99.99
2018-11-12T01:49:03.648Z,99.99
2018-11-12T01:50:03.846Z,99.99
2018-11-12T01:51:04.038Z,99.99
2018-11-12T01:52:04.146Z,99.99
2018-11-12T01:53:04.356Z,99.99
2018-11-12T01:54:04.534Z,99.99
2018-11-12T01:55:04.758Z,99.99
2018-11-12T01:56:04.894Z,99.99
2018-11-12T01:57:04.951Z,99.99
2018-11-12T01:58:05.139Z,99.99
2018-11-12T01:59:05.332Z,99.99
2018-11-12T02:00:05.546Z,99.99
2018-11-12T02:01:05.760Z,99.99
2018-11-12T02:02:05.944Z,99.99
2018-11-12T02:03:06.125Z,99.99
2018-11-12T02:04:06.326Z,99.99
2018-11-12T02:05:06.511Z,99.99
2018-11-12T02:06:06.691Z,99.99
2018-11-12T02:07:06.910Z,99.99
2018-11-12T02:08:07.045Z,99.99
2018-11-12T02:09:07.204Z,99.99
2018-11-12T02:10:07.348Z,99.99
2018-11-12T02:11:07.436Z,99.99
2018-11-12T02:12:07.639Z,99.99
2018-11-12T02:13:07.816Z,99.99
2018-11-12T02:14:07.999Z,99.99
2018-11-12T02:15:08.196Z,99.99
2018-11-12T02:16:08.382Z,99.99
2018-11-12T02:17:08.571Z,99.99
2018-11-12T02:18:08.774Z,99.99
2018-11-12T02:19:08.967Z,99.99
2018-11-12T02:20:09.138Z,99.99
2018-11-12T02:21:09.344Z,99.99
2018-11-12T02:22:09.536Z,99.99
2018-11-12T02:23:09.770Z,99.99
2018-11-12T02:24:09.825Z,99.99
2018-11-12T02:25:10.048Z,99.99
2018-11-12T02:26:10.253Z,99.99
2018-11-12T02:27:10.437Z,99.99
2018-11-12T02:28:10.635Z,99.99
2018-11-12T02:29:10.855Z,99.99
2018-11-12T02:30:11.060Z,99.99
2018-11-12T02:31:11.169Z,99.99
2018-11-12T02:32:11.259Z,99.99
2018-11-12T02:33:11.525Z,99.99
2018-11-12T02:34:11.651Z,99.99
2018-11-12T02:35:11.855Z,99.99
2018-11-12T02:36:12.064Z,99.99
2018-11-12T02:37:12.178Z,99.99
2018-11-12T02:38:12.399Z,99.99
2018-11-12T02:39:12.477Z,99.99
2018-11-12T02:40:12.667Z,99.99
2018-11-12T02:41:12.861Z,99.99
2018-11-12T02:42:13.045Z,99.99
2018-11-12T02:43:13.225Z,99.99
2018-11-12T02:44:13.442Z,99.99
2018-11-12T02:45:13.655Z,99.99
2018-11-12T02:46:13.740Z,99.99
2018-11-12T02:47:13.933Z,99.99
2018-11-12T02:48:14.124Z,99.99
2018-11-12T02:49:14.326Z,99.99
2018-11-12T02:50:14.547Z,99.99
2018-11-12T02:51:14.646Z,99.99
2018-11-12T02:52:14.828Z,99.99
2018-11-12T02:53:15.037Z,99.99
2018-11-12T02:54:15.257Z,99.99
2018-11-12T02:55:15.452Z,99.99
2018-11-12T02:56:15.649Z,99.99
2018-11-12T02:57:15.907Z,99.99
2018-11-12T02:58:16.018Z,99.99
2018-11-12T02:59:16.245Z,99.99
2018-11-12T03:00:16.350Z,99.99
2018-11-12T03:01:16.464Z,99.99
2018-11-12T03:02:16.510Z,99.99
2018-11-12T03:03:16.747Z,99.99
2018-11-12T03:04:16.830Z,99.99
2018-11-12T03:05:17.013Z,99.99
2018-11-12T03:06:17.210Z,99.99
2018-11-12T03:07:17.458Z,99.99
2018-11-12T03:08:17.579Z,99.99
2018-11-12T03:09:17.790Z,99.99
2018-11-12T03:10:17.971Z,99.99
2018-11-12T03:11:18.162Z,99.99
2018-11-12T03:12:18.379Z,99.99
2018-11-12T03:13:18.497Z,99.99
2018-11-12T03:14:18.680Z,99.99
2018-11-12T03:15:18.885Z,99.99
2018-11-12T03:16:19.082Z,99.99
2018-11-12T03:17:19.265Z,99.99
2018-11-12T03:18:19.486Z,99.99
2018-11-12T03:19:19.669Z,99.99
2018-11-12T03:20:19.904Z,99.99
2018-11-12T03:21:20.084Z,99.99
2018-11-12T03:22:20.294Z,99.99
2018-11-12T03:23:20.476Z,99.99
2018-11-12T03:24:20.726Z,99.99
2018-11-12T03:25:20.800Z,99.99
2018-11-12T03:26:20.984Z,99.99
2018-11-12T03:27:21.176Z,99.99
2018-11-12T03:28:21.415Z,99.99
2018-11-12T03:29:21.594Z,99.99
2018-11-12T03:30:21.838Z,99.99
2018-11-12T03:31:21.894Z,99.99
2018-11-12T03:32:22.091Z,99.99
2018-11-12T03:33:24.849Z,99.99
2018-11-12T03:34:22.460Z,99.99
2018-11-12T03:35:22.657Z,99.99
2018-11-12T03:36:22.890Z,99.99
2018-11-12T03:37:22.956Z,99.99
2018-11-12T03:38:23.162Z,99.99
2018-11-12T03:39:23.419Z,99.99
2018-11-12T03:40:23.530Z,99.99
2018-11-12T03:41:23.753Z,99.99
2018-11-12T03:42:23.832Z,99.99
2018-11-12T03:43:24.063Z,99.99
2018-11-12T03:44:24.205Z,99.99
2018-11-12T03:45:24.240Z,99.99
2018-11-12T03:46:24.459Z,99.99
2018-11-12T03:47:24.669Z,99.99
2018-11-12T03:48:24.876Z,99.99
2018-11-12T03:49:25.083Z,99.99
2018-11-12T03:50:25.305Z,99.99
2018-11-12T03:51:25.495Z,99.99
2018-11-12T03:52:25.685Z,99.99
2018-11-12T03:53:25.921Z,99.99
2018-11-12T03:54:26.001Z,99.99
2018-11-12T03:55:26.202Z,99.99
2018-11-12T03:56:26.311Z,99.99
2018-11-12T03:57:26.507Z,99.99
2018-11-12T03:58:26.687Z,99.99
2018-11-12T03:59:26.899Z,99.99
2018-11-12T04:00:27.114Z,99.99
2018-11-12T04:01:27.153Z,99.99
2018-11-12T04:02:27.360Z,99.99
2018-11-12T04:03:27.560Z,99.99
2018-11-12T04:04:27.739Z,99.99
2018-11-12T04:05:27.944Z,99.99
2018-11-12T04:06:28.148Z,99.99
2018-11-12T04:07:28.366Z,99.99
2018-11-12T04:08:28.591Z,99.99
2018-11-12T04:09:28.793Z,99.99
2018-11-12T04:10:28.987Z,99.99
2018-11-12T04:11:29.179Z,99.99
2018-11-12T04:12:29.424Z,99.99
2018-11-12T04:13:29.510Z,99.99
2018-11-12T04:14:29.734Z,99.99
2018-11-12T04:15:29.939Z,99.99
2018-11-12T04:16:30.142Z,99.99
2018-11-12T04:17:30.341Z,99.99
2018-11-12T04:18:30.521Z,99.99
2018-11-12T04:19:30.767Z,99.99
2018-11-12T04:20:30.997Z,99.99
2018-11-12T04:21:31.134Z,99.99
2018-11-12T04:22:31.322Z,99.99
2018-11-12T04:23:31.520Z,99.99
2018-11-12T04:24:31.713Z,99.99
2018-11-12T04:25:31.913Z,99.99
2018-11-12T04:26:32.095Z,99.99
2018-11-12T04:27:32.317Z,99.99
2018-11-12T04:28:32.508Z,99.99
2018-11-12T04:29:32.713Z,99.99
2018-11-12T04:30:32.891Z,99.99
2018-11-12T04:31:33.112Z,99.99
2018-11-12T04:32:33.316Z,99.99
2018-11-12T04:33:33.532Z,99.99
2018-11-12T04:34:33.724Z,99.99
2018-11-12T04:35:33.918Z,99.99
2018-11-12T04:36:34.030Z,99.99
2018-11-12T04:37:34.173Z,99.99
2018-11-12T04:38:34.389Z,99.99
2018-11-12T04:39:34.490Z,99.99
2018-11-12T04:40:34.717Z,99.99
2018-11-12T04:41:34.662Z,99.99
2018-11-12T04:42:34.844Z,99.99
2018-11-12T04:43:35.061Z,99.99
2018-11-12T04:44:35.252Z,99.99
2018-11-12T04:45:35.582Z,99.99
2018-11-12T04:46:35.580Z,99.99
2018-11-12T04:47:35.781Z,99.99
2018-11-12T04:48:35.982Z,99.99
2018-11-12T04:49:36.207Z,99.99
2018-11-12T04:50:36.335Z,99.99
2018-11-12T04:51:36.445Z,99.99
2018-11-12T04:52:36.565Z,99.99
2018-11-12T04:53:36.629Z,99.99
2018-11-12T04:54:36.819Z,99.99
2018-11-12T04:55:37.031Z,99.99
2018-11-12T04:56:37.234Z,99.99
2018-11-12T04:57:37.414Z,99.99
2018-11-12T04:58:37.598Z,99.99
2018-11-12T04:59:37.804Z,99.99
2018-11-12T05:00:38.069Z,99.99
2018-11-12T05:01:38.174Z,99.99
2018-11-12T05:02:38.263Z,99.99
2018-11-12T05:03:38.437Z,99.99
2018-11-12T05:04:38.627Z,99.99
2018-11-12T05:05:38.849Z,99.99
2018-11-12T05:06:39.032Z,99.99
2018-11-12T05:07:39.304Z,99.99
2018-11-12T05:08:39.301Z,99.99
2018-11-12T05:09:39.491Z,99.99
2018-11-12T05:10:39.685Z,99.99
2018-11-12T05:11:39.863Z,99.99
2018-11-12T05:12:40.139Z,99.99
2018-11-12T05:13:40.223Z,99.99
2018-11-12T05:14:40.422Z,99.99
2018-11-12T05:15:40.631Z,99.99
2018-11-12T05:16:40.887Z,99.99
2018-11-12T05:17:41.174Z,99.99
2018-11-12T05:18:41.163Z,99.99
2018-11-12T05:19:41.342Z,99.99
2018-11-12T05:20:41.546Z,99.99
2018-11-12T05:21:41.745Z,99.99
2018-11-12T05:22:41.948Z,99.99
2018-11-12T05:23:42.163Z,99.99
2018-11-12T05:24:42.249Z,99.99
2018-11-12T05:25:42.473Z,99.99
2018-11-12T05:26:42.638Z,99.99
2018-11-12T05:27:42.881Z,99.99
2018-11-12T05:28:43.078Z,99.99
2018-11-12T05:29:43.279Z,99.99
2018-11-12T05:30:43.454Z,99.99
2018-11-12T05:31:43.665Z,99.99
2018-11-12T05:32:43.858Z,99.99
2018-11-12T05:33:44.079Z,99.99
2018-11-12T05:34:44.318Z,99.99
2018-11-12T05:35:44.475Z,99.99
2018-11-12T05:36:44.701Z,99.99
2018-11-12T05:37:45.794Z,99.99
2018-11-12T05:38:45.083Z,99.99
2018-11-12T05:39:45.295Z,99.99
2018-11-12T05:40:46.975Z,99.99
2018-11-12T05:41:47.818Z,99.99
2018-11-12T05:42:48.026Z,99.99
2018-11-12T05:43:46.035Z,99.99
2018-11-12T05:44:46.280Z,99.99
2018-11-12T05:45:46.460Z,99.99
2018-11-12T05:46:46.676Z,99.99
2018-11-12T05:47:46.925Z,99.99
2018-11-12T05:48:46.996Z,99.99
2018-11-12T05:49:47.200Z,99.99
2018-11-12T05:50:47.385Z,99.99
2018-11-12T05:51:47.595Z,99.99
2018-11-12T05:52:47.797Z,99.99
2018-11-12T05:53:47.991Z,99.99
2018-11-12T05:54:48.204Z,99.99
2018-11-12T05:55:48.417Z,99.99
2018-11-12T05:56:48.602Z,99.99
2018-11-12T05:57:48.802Z,99.99
2018-11-12T05:58:49.048Z,99.99
2018-11-12T05:59:49.229Z,99.99
2018-11-12T06:00:49.453Z,99.99
2018-11-12T06:01:52.602Z,99.99
2018-11-12T06:02:51.961Z,99.99
2018-11-12T06:03:53.714Z,99.99
2018-11-12T06:04:50.597Z,99.99
2018-11-12T06:05:50.219Z,99.99
2018-11-12T06:06:50.527Z,99.99
2018-11-12T06:07:50.441Z,99.99
2018-11-12T06:08:50.508Z,99.99
2018-11-12T06:09:54.667Z,99.99
2018-11-12T06:10:53.413Z,99.99
2018-11-12T06:11:52.439Z,99.99
2018-11-12T06:12:51.416Z,99.99
2018-11-12T06:13:52.165Z,99.99
2018-11-12T06:14:52.163Z,99.99
2018-11-12T06:15:52.789Z,99.99
2018-11-12T06:16:53.566Z,99.99
2018-11-12T06:17:55.013Z,99.99
2018-11-12T06:18:54.621Z,99.99
2018-11-12T06:19:53.350Z,99.99
2018-11-12T06:20:54.595Z,99.99
2018-11-12T06:21:53.825Z,99.99
2018-11-12T06:22:53.939Z,99.99
2018-11-12T06:23:54.489Z,99.99
2018-11-12T06:24:54.468Z,99.99
2018-11-12T06:25:54.674Z,99.99
2018-11-12T06:26:54.230Z,99.99
2018-11-12T06:27:55.732Z,99.99
2018-11-12T06:28:54.859Z,99.99
2018-11-12T06:29:54.413Z,99.99
2018-11-12T06:30:54.584Z,99.99
2018-11-12T06:31:54.697Z,99.99
2018-11-12T06:32:58.774Z,99.99
2018-11-12T06:33:54.854Z,99.99
2018-11-12T06:34:54.970Z,99.99
2018-11-12T06:35:54.794Z,99.99
2018-11-12T06:36:55.084Z,99.99
2018-11-12T06:37:55.184Z,99.99
2018-11-12T06:38:55.403Z,99.99
2018-11-12T06:39:55.642Z,99.99
2018-11-12T06:40:55.753Z,99.99
2018-11-12T06:41:55.905Z,99.99
2018-11-12T06:42:56.119Z,99.99
2018-11-12T06:43:56.289Z,99.99
2018-11-12T06:44:56.454Z,99.99
2018-11-12T06:45:56.628Z,99.99
2018-11-12T06:46:56.823Z,99.99
2018-11-12T06:47:57.038Z,99.99
2018-11-12T06:48:57.228Z,99.99
2018-11-12T06:49:57.430Z,99.99
2018-11-12T06:50:57.617Z,99.99
2018-11-12T06:51:57.858Z,99.99
2018-11-12T06:52:57.963Z,99.99
2018-11-12T06:53:58.117Z,99.99
2018-11-12T06:54:58.375Z,99.99
2018-11-12T06:55:58.456Z,99.99
2018-11-12T06:56:58.646Z,99.99
2018-11-12T06:57:58.844Z,99.99
2018-11-12T06:58:59.033Z,99.99
2018-11-12T06:59:59.206Z,99.99
2018-11-12T07:00:59.477Z,99.99
2018-11-12T07:01:59.685Z,99.99
2018-11-12T07:02:59.721Z,99.99
2018-11-12T07:03:59.913Z,99.99
2018-11-12T07:05:00.151Z,99.99
2018-11-12T07:06:00.282Z,99.99
2018-11-12T07:07:00.520Z,99.99
2018-11-12T07:08:00.680Z,99.99
2018-11-12T07:09:00.854Z,99.99
2018-11-12T07:10:01.024Z,99.99
2018-11-12T07:11:01.201Z,99.99
2018-11-12T07:12:01.419Z,99.99
2018-11-12T07:13:05.423Z,99.99
2018-11-12T07:14:01.964Z,99.99
2018-11-12T07:15:01.956Z,99.99
2018-11-12T07:16:02.148Z,99.99
2018-11-12T07:17:02.312Z,99.99
2018-11-12T07:18:02.493Z,99.99
2018-11-12T07:19:02.778Z,99.99
2018-11-12T07:20:02.832Z,99.99
2018-11-12T07:21:02.970Z,99.99
2018-11-12T07:22:03.307Z,99.99
2018-11-12T07:23:03.738Z,99.99
2018-11-12T07:24:03.647Z,99.99
2018-11-12T07:25:03.751Z,99.99
2018-11-12T07:26:03.895Z,99.99
2018-11-12T07:27:04.069Z,99.99
2018-11-12T07:28:04.316Z,99.99
2018-11-12T07:29:04.409Z,99.99
2018-11-12T07:30:04.528Z,99.99
2018-11-12T07:31:04.765Z,99.99
2018-11-12T07:32:04.868Z,99.99
2018-11-12T07:33:05.248Z,99.99
2018-11-12T07:34:05.083Z,99.99
2018-11-12T07:35:05.249Z,99.99
2018-11-12T07:36:05.485Z,99.99
2018-11-12T07:37:05.601Z,99.99
2018-11-12T07:38:05.676Z,99.99
2018-11-12T07:39:05.904Z,99.99
2018-11-12T07:40:05.994Z,99.99
2018-11-12T07:41:06.267Z,99.99
2018-11-12T07:42:06.408Z,99.99
2018-11-12T07:43:06.574Z,99.99
2018-11-12T07:44:06.877Z,99.99
2018-11-12T07:45:07.010Z,99.99
2018-11-12T07:46:07.095Z,99.99
2018-11-12T07:47:07.291Z,99.99
2018-11-12T07:48:07.481Z,99.99
2018-11-12T07:49:07.727Z,99.99
2018-11-12T07:50:07.818Z,99.99
2018-11-12T07:51:08.125Z,99.99
2018-11-12T07:52:08.161Z,99.99
2018-11-12T07:53:08.338Z,99.99
2018-11-12T07:54:08.560Z,99.99
2018-11-12T07:55:08.758Z,99.99
2018-11-12T07:56:09.008Z,99.99
2018-11-12T07:57:10.041Z,99.99
2018-11-12T07:58:09.259Z,99.99
2018-11-12T07:59:10.106Z,99.99
2018-11-12T08:00:09.691Z,99.99
2018-11-12T08:01:09.883Z,99.99
2018-11-12T08:02:10.056Z,99.99
2018-11-12T08:03:10.334Z,99.99
2018-11-12T08:04:10.461Z,99.99
2018-11-12T08:05:10.665Z,99.99
2018-11-12T08:06:10.841Z,99.99
2018-11-12T08:07:11.027Z,99.99
2018-11-12T08:08:12.515Z,99.99
2018-11-12T08:09:11.468Z,99.99
2018-11-12T08:10:11.565Z,99.99
2018-11-12T08:11:11.790Z,99.99
2018-11-12T08:12:11.878Z,99.99
2018-11-12T08:13:12.069Z,99.99
2018-11-12T08:14:12.271Z,99.99
2018-11-12T08:15:12.448Z,99.99
2018-11-12T08:16:12.652Z,99.99
2018-11-12T08:17:12.823Z,99.99
2018-11-12T08:18:13.006Z,99.99
2018-11-12T08:19:13.176Z,99.99
2018-11-12T08:20:18.046Z,99.99
2018-11-12T08:21:17.170Z,99.99
2018-11-12T08:22:17.194Z,99.99
2018-11-12T08:23:13.862Z,99.99
2018-11-12T08:24:14.131Z,99.99
2018-11-12T08:25:14.237Z,99.99
2018-11-12T08:26:14.423Z,99.99
2018-11-12T08:27:14.589Z,99.99
2018-11-12T08:28:14.768Z,99.99
2018-11-12T08:29:14.954Z,99.99
2018-11-12T08:30:15.192Z,99.99
2018-11-12T08:31:15.369Z,99.99
2018-11-12T08:32:15.582Z,99.99
2018-11-12T08:33:15.930Z,99.99
2018-11-12T08:34:16.214Z,99.99
2018-11-12T08:35:16.114Z,99.99
2018-11-12T08:36:16.318Z,99.99
2018-11-12T08:37:16.485Z,99.99
2018-11-12T08:38:16.690Z,99.99
2018-11-12T08:39:17.111Z,99.99
2018-11-12T08:40:17.072Z,99.99
2018-11-12T08:41:17.099Z,99.99
2018-11-12T08:42:17.329Z,99.99
2018-11-12T08:43:17.470Z,99.99
2018-11-12T08:44:17.655Z,99.99
2018-11-12T08:45:17.827Z,99.99
2018-11-12T08:46:18.018Z,99.99
2018-11-12T08:47:18.204Z,99.99
2018-11-12T08:48:18.465Z,99.99
2018-11-12T08:49:18.615Z,99.99
2018-11-12T08:50:18.780Z,99.99
2018-11-12T08:51:18.964Z,99.99
2018-11-12T08:52:19.197Z,99.99
2018-11-12T08:53:19.350Z,99.99
2018-11-12T08:54:19.583Z,99.99
2018-11-12T08:55:20.100Z,99.99
2018-11-12T08:56:19.823Z,99.99
2018-11-12T08:57:20.037Z,99.99
2018-11-12T08:58:20.741Z,99.99
2018-11-12T08:59:20.482Z,99.99
2018-11-12T09:00:20.605Z,99.99
2018-11-12T09:01:20.782Z,99.99
2018-11-12T09:02:20.978Z,99.99
2018-11-12T09:03:21.199Z,99.99
2018-11-12T09:04:21.284Z,99.99
2018-11-12T09:05:21.491Z,99.99
2018-11-12T09:06:21.738Z,99.99
2018-11-12T09:07:21.840Z,99.99
2018-11-12T09:08:22.025Z,99.99
2018-11-12T09:09:22.256Z,99.99
2018-11-12T09:10:27.887Z,99.99
2018-11-12T09:11:23.656Z,99.99
2018-11-12T09:12:22.588Z,99.99
2018-11-12T09:13:23.681Z,99.99
2018-11-12T09:14:22.810Z,99.99
2018-11-12T09:15:23.016Z,99.99
2018-11-12T09:16:23.134Z,99.99
2018-11-12T09:17:23.346Z,99.99
2018-11-12T09:18:23.484Z,99.99
2018-11-12T09:19:23.544Z,99.99
2018-11-12T09:20:23.773Z,99.99
2018-11-12T09:21:23.911Z,99.99
2018-11-12T09:22:24.130Z,99.99
2018-11-12T09:23:24.372Z,99.99
2018-11-12T09:24:24.564Z,99.99
2018-11-12T09:25:24.554Z,99.99
2018-11-12T09:26:24.842Z,99.99
2018-11-12T09:27:25.483Z,99.99
2018-11-12T09:28:25.179Z,99.99
2018-11-12T09:29:25.274Z,99.99
2018-11-12T09:30:25.485Z,99.99
2018-11-12T09:31:26.561Z,99.99
2018-11-12T09:32:25.796Z,99.99
2018-11-12T09:33:25.998Z,99.99
2018-11-12T09:34:26.211Z,99.99
2018-11-12T09:35:26.492Z,99.99
2018-11-12T09:36:26.568Z,99.99
2018-11-12T09:37:26.896Z,99.99
2018-11-12T09:38:26.980Z,99.99
2018-11-12T09:39:27.077Z,99.99
2018-11-12T09:40:27.267Z,99.99
2018-11-12T09:41:27.578Z,99.99
2018-11-12T09:42:27.663Z,99.99
2018-11-12T09:43:27.932Z,99.99
2018-11-12T09:44:27.975Z,99.99
2018-11-12T09:45:28.210Z,99.99
2018-11-12T09:46:28.281Z,99.99
2018-11-12T09:47:28.480Z,99.99
2018-11-12T09:48:28.706Z,99.99
2018-11-12T09:49:28.751Z,99.99
2018-11-12T09:50:28.962Z,99.99
2018-11-12T09:51:29.118Z,99.99
2018-11-12T09:52:29.318Z,99.99
2018-11-12T09:53:29.422Z,99.99
2018-11-12T09:54:29.767Z,99.99
2018-11-12T09:55:29.780Z,99.99
2018-11-12T09:56:30.103Z,99.99
2018-11-12T09:57:30.321Z,99.99
2018-11-12T09:58:30.414Z,99.99
2018-11-12T09:59:30.553Z,99.99
2018-11-12T10:00:30.480Z,99.99
2018-11-12T10:01:31.481Z,99.99
2018-11-12T10:02:31.287Z,99.99
2018-11-12T10:03:31.027Z,99.99
2018-11-12T10:04:32.425Z,99.99
2018-11-12T10:05:32.686Z,99.99
2018-11-12T10:06:33.366Z,99.99
2018-11-12T10:07:33.856Z,99.99
2018-11-12T10:08:33.958Z,99.99
2018-11-12T10:09:33.571Z,99.99
2018-11-12T10:10:34.370Z,99.99
2018-11-12T10:11:34.610Z,99.99
2018-11-12T10:12:34.861Z,99.99
2018-11-12T10:13:35.130Z,99.99
2018-11-12T10:14:34.874Z,99.99
2018-11-12T10:15:35.920Z,99.99
2018-11-12T10:16:35.822Z,99.99
2018-11-12T10:17:39.312Z,99.99
2018-11-12T10:18:34.916Z,99.99
2018-11-12T10:19:33.510Z,99.99
2018-11-12T10:20:33.708Z,99.99
2018-11-12T10:21:33.929Z,99.99
2018-11-12T10:22:34.136Z,99.99
2018-11-12T10:23:34.313Z,99.99
2018-11-12T10:24:34.539Z,99.99
2018-11-12T10:25:34.754Z,99.99
2018-11-12T10:26:35.121Z,99.99
2018-11-12T10:27:35.051Z,99.99
2018-11-12T10:28:35.243Z,99.99
2018-11-12T10:29:35.436Z,99.99
2018-11-12T10:30:37.207Z,99.99
2018-11-12T10:31:35.757Z,99.99
2018-11-12T10:32:35.940Z,99.99
2018-11-12T10:33:36.230Z,99.99
2018-11-12T10:34:36.600Z,99.99
2018-11-12T10:35:39.233Z,99.99
2018-11-12T10:36:36.543Z,99.99
2018-11-12T10:37:36.759Z,99.99
2018-11-12T10:38:36.913Z,99.99
2018-11-12T10:39:37.407Z,99.99
2018-11-12T10:40:37.413Z,99.99
2018-11-12T10:41:37.509Z,99.99
2018-11-12T10:42:38.032Z,99.99
2018-11-12T10:43:38.135Z,99.99
2018-11-12T10:44:37.909Z,99.99
2018-11-12T10:45:38.035Z,99.99
2018-11-12T10:46:38.129Z,99.99
2018-11-12T10:47:38.333Z,99.99
2018-11-12T10:48:38.542Z,99.99
2018-11-12T10:49:38.718Z,99.99
2018-11-12T10:50:38.955Z,99.99
2018-11-12T10:51:40.309Z,99.99
2018-11-12T10:52:39.131Z,99.99
2018-11-12T10:53:49.841Z,99.99
2018-11-12T10:54:39.646Z,99.99
2018-11-12T10:55:39.819Z,99.99
2018-11-12T10:56:39.888Z,99.99
2018-11-12T10:57:40.656Z,99.99
2018-11-12T10:58:40.931Z,99.99
2018-11-12T10:59:40.684Z,99.99
2018-11-12T11:00:40.658Z,99.99
2018-11-12T11:01:40.816Z,99.99
2018-11-12T11:02:41.000Z,99.99
2018-11-12T11:03:41.166Z,99.62
2018-11-12T11:04:41.340Z,97.99
2018-11-12T11:05:41.500Z,97.52
2018-11-12T11:06:41.668Z,97.90
2018-11-12T11:07:41.877Z,98.85
2018-11-12T11:08:42.015Z,98.95
2018-11-12T11:09:42.188Z,99.43
2018-11-12T11:10:42.390Z,99.52
2018-11-12T11:11:42.713Z,99.99
2018-11-12T11:12:42.708Z,99.99
2018-11-12T11:13:42.900Z,99.99
2018-11-12T11:14:43.122Z,99.99
2018-11-12T11:15:43.255Z,99.99
2018-11-12T11:16:43.556Z,99.86
2018-11-12T11:17:43.544Z,99.76
2018-11-12T11:18:43.709Z,99.99
2018-11-12T11:19:43.891Z,99.99
2018-11-12T11:20:44.050Z,99.99
2018-11-12T11:21:44.243Z,99.62
2018-11-12T11:22:44.474Z,99.00
2018-11-12T11:23:44.525Z,98.33
2018-11-12T11:24:44.696Z,98.33
2018-11-12T11:25:44.937Z,98.33
2018-11-12T11:26:45.049Z,98.81
2018-11-12T11:27:45.213Z,98.71
2018-11-12T11:28:45.407Z,98.61
2018-11-12T11:29:45.588Z,98.24
2018-11-12T11:30:45.769Z,99.00
2018-11-12T11:31:48.141Z,98.71
2018-11-12T11:32:46.129Z,97.95
2018-11-12T11:33:46.324Z,97.66
2018-11-12T11:34:46.482Z,97.85
2018-11-12T11:35:46.717Z,98.04
2018-11-12T11:36:46.892Z,97.85
2018-11-12T11:37:47.122Z,96.89
2018-11-12T11:38:47.272Z,96.03
2018-11-12T11:39:47.462Z,95.56
2018-11-12T11:40:47.714Z,94.50
2018-11-12T11:41:47.820Z,95.36
2018-11-12T11:42:48.008Z,95.84
2018-11-12T11:43:48.267Z,96.13
2018-11-12T11:44:48.413Z,95.56
2018-11-12T11:45:48.585Z,96.47
2018-11-12T11:46:48.754Z,96.13
2018-11-12T11:47:49.091Z,96.32
2018-11-12T11:48:49.127Z,97.04
2018-11-12T11:49:49.271Z,97.18
2018-11-12T11:50:49.438Z,97.42
2018-11-12T11:51:49.603Z,97.23
2018-11-12T11:52:49.782Z,96.66
2018-11-12T11:53:49.950Z,96.66
2018-11-12T11:54:50.125Z,96.75
2018-11-12T11:55:50.322Z,96.94
2018-11-12T11:56:50.604Z,97.13
2018-11-12T11:57:50.684Z,97.42
2018-11-12T11:58:50.840Z,97.71
2018-11-12T11:59:51.012Z,98.76
2018-11-12T12:00:51.294Z,98.76
2018-11-12T12:01:51.384Z,98.86
2018-11-12T12:02:51.611Z,98.86
2018-11-12T12:03:51.744Z,98.86
2018-11-12T12:04:51.969Z,98.19
2018-11-12T12:05:52.190Z,98.09
2018-11-12T12:06:52.348Z,98.28
2018-11-12T12:07:52.573Z,97.90
2018-11-12T12:08:52.849Z,97.80
2018-11-12T12:09:52.972Z,98.00
2018-11-12T12:10:53.158Z,98.28
2018-11-12T12:11:53.328Z,98.28
2018-11-12T12:12:53.538Z,98.86
2018-11-12T12:13:53.698Z,98.66
2018-11-12T12:14:54.282Z,98.66
2018-11-12T12:15:53.967Z,98.28
2018-11-12T12:16:54.144Z,99.05
2018-11-12T12:17:54.645Z,99.24
2018-11-12T12:18:54.464Z,98.09
2018-11-12T12:19:55.096Z,97.80
2018-11-12T12:20:54.853Z,98.00
2018-11-12T12:21:55.860Z,97.90
2018-11-12T12:22:55.376Z,97.23
2018-11-12T12:23:55.305Z,94.45
2018-11-12T12:24:55.478Z,95.41
2018-11-12T12:25:55.723Z,95.51
2018-11-12T12:26:55.807Z,92.92
2018-11-12T12:27:55.975Z,93.40
2018-11-12T12:28:56.152Z,95.22
2018-11-12T12:29:56.344Z,95.31
2018-11-12T12:30:56.518Z,96.47
2018-11-12T12:31:56.699Z,95.61
2018-11-12T12:32:56.934Z,95.36
2018-11-12T12:33:57.191Z,95.41
2018-11-12T12:34:57.326Z,95.41
2018-11-12T12:35:57.571Z,95.27
2018-11-12T12:36:57.609Z,95.07
2018-11-12T12:37:57.781Z,95.75
2018-11-12T12:38:57.969Z,95.36
2018-11-12T12:39:58.159Z,95.84
2018-11-12T12:40:59.771Z,95.36
2018-11-12T12:42:00.354Z,92.97
2018-11-12T12:42:59.810Z,91.25
2018-11-12T12:43:59.203Z,90.19
2018-11-12T12:44:59.245Z,89.23
2018-11-12T12:45:59.379Z,90.67
2018-11-12T12:46:59.959Z,90.86
2018-11-12T12:47:59.618Z,92.11
2018-11-12T12:48:59.816Z,92.97
2018-11-12T12:50:00.033Z,91.15
2018-11-12T12:51:00.276Z,92.21
2018-11-12T12:52:00.327Z,91.15
2018-11-12T12:53:00.517Z,90.67
2018-11-12T12:54:00.697Z,89.04
2018-11-12T12:55:00.877Z,88.09